Airfield :
LOGIN :

Register | Disclaimer

   EN    FR    IT 

 










Legend :    VFR   Marginal VFR   IFR   Intensive IFR   Very Intensive IFR
Visi :
Ceiling :
>= 8 km
>= 3000ft
5 to 8 km
1000 to 3000 ft
1500m to 5 km
500 to 1000 ft
800 to 1500m
200 to 500 ft
< 800m
< 200 ft
Symbols :   Thunderstorms  Fog  Heavy snow  Heavy precipitations  Wind > 20 kt
SIGMETs :     Misc.  Thunderstorms  Icing  Turbulence  Mountain Waves  Volcanic Ashes






- Airport Elevation : 36 ft
- IATA code : LTQ


LFAT - Le Touquet

CURRENT METAR :
  • 190930Z AUTO 21011KT 170V250 9999 OVC017/// ///CB 14/11 Q1002 TEMPO 21017G27KT 3000 SHRA BKN012 BKN020CB

EXPIRED METARs :
  • 190900Z AUTO 21010KT 170V250 9999 BKN016/// BKN022/// OVC060/// ///CB 14/11 Q1002 TEMPO 21017G27KT 3000 SHRA BKN012 BKN020CB
  • 190830Z AUTO 21011KT 180V240 9999 BKN016/// OVC062/// ///CB 13/10 Q1002 TEMPO 21017G27KT 3000 SHRA BKN012 BKN020CB
  • 190800Z AUTO 21010KT 180V240 9999 BKN016/// ///CB 13/10 Q1002 TEMPO 21017G27KT 3000 SHRA BKN012 BKN020CB
  • 190730Z AUTO 21010KT 180V250 9999 OVC017/// ///TCU 13/10 Q1002 TEMPO 21017G27KT 3000 SHRA BKN012 BKN020CB
  • 190700Z AUTO 22009KT 180V250 9999 BKN016/// BKN025/// ///CB 13/10 Q1002 TEMPO 21017G27KT 3000 SHRA BKN012 BKN020CB
  • 190630Z AUTO 21010KT 180V250 9999 BKN017/// BKN024/// ///CB 13/10 Q1002 TEMPO 21017G27KT 3000 SHRA BKN012 BKN020CB

TAF TAF LFAT
Valid from the 19 at 09:00 until the 19 at 18:00 UTC


190800Z 1909/1918 21012KT 9999 BKN020
PROB40
TEMPO 1909/1918 21017G27KT 3000 SHRA BKN012 BKN020CB
PROB30
TEMPO 1909/1918 TSRA
ATIS : +33 3 21 06 62 84



MET'MAP, your aeronautical weather chart ! - Copyright ORBIFLY December 2007 - Disclaimer

ORBIFLY MET'MAP TEAM :

Programming & Development : Alexandra Zaïnal
Concept & Development : Baudouin d'Aumeries
Co-Development & Prog : Marc-Olivier Méhu
Technical & hardware support : Manuel Goepfert

Contact : metmap@orbifly.com




SOURCES & CREDITS :

   NOAA